createdAt,value
2023-04-18T00:02:36.498Z,19.15
2023-04-18T00:05:40.773Z,15.90
2023-04-18T00:08:44.860Z,19.92
2023-04-18T00:11:49.014Z,19.63
2023-04-18T00:14:53.472Z,18.50
2023-04-18T00:17:57.998Z,19.33
2023-04-18T00:21:03.105Z,18.52
2023-04-18T00:24:07.632Z,19.63
2023-04-18T00:27:11.388Z,19.45
2023-04-18T00:30:15.469Z,17.65
2023-04-18T00:33:19.264Z,21.10
2023-04-18T00:36:23.366Z,20.90
2023-04-18T00:39:27.423Z,19.60
2023-04-18T00:42:31.860Z,21.48
2023-04-18T00:45:37.129Z,22.95
2023-04-18T00:48:41.337Z,24.17
2023-04-18T00:51:45.735Z,22.42
2023-04-18T00:54:49.758Z,25.52
2023-04-18T00:57:53.609Z,24.00
2023-04-18T01:00:57.909Z,25.52
2023-04-18T01:04:02.530Z,25.67
2023-04-18T01:07:08.354Z,28.52
2023-04-18T01:10:12.302Z,31.55
2023-04-18T01:13:20.662Z,30.30
2023-04-18T01:16:24.853Z,36.35
2023-04-18T01:19:29.078Z,32.85
2023-04-18T01:22:33.645Z,34.72
2023-04-18T01:25:38.951Z,37.88
2023-04-18T01:28:42.854Z,37.20
2023-04-18T01:31:46.776Z,35.85
2023-04-18T01:34:51.159Z,37.60
2023-04-18T01:37:55.721Z,36.40
2023-04-18T01:41:05.673Z,35.22
2023-04-18T01:44:09.751Z,34.80
2023-04-18T01:47:14.046Z,36.13
2023-04-18T01:50:18.170Z,34.08
2023-04-18T01:53:24.038Z,37.42
2023-04-18T01:56:28.254Z,37.92
2023-04-18T01:59:32.233Z,38.47
2023-04-18T02:02:36.072Z,31.73
2023-04-18T02:05:40.144Z,35.80
2023-04-18T02:08:44.173Z,32.42
2023-04-18T02:11:48.411Z,32.92
2023-04-18T02:14:53.487Z,29.95
2023-04-18T02:18:00.193Z,32.10
2023-04-18T02:21:04.735Z,30.38
2023-04-18T02:24:08.497Z,29.15
2023-04-18T02:27:12.681Z,33.55
2023-04-18T02:30:16.938Z,29.17
2023-04-18T02:33:20.849Z,28.25
2023-04-18T02:36:28.110Z,27.23
2023-04-18T02:39:32.396Z,29.92
2023-04-18T02:42:36.394Z,28.85
2023-04-18T02:45:40.590Z,28.50
2023-04-18T02:48:44.663Z,29.63
2023-04-18T02:51:48.804Z,31.90
2023-04-18T02:54:52.978Z,30.70
2023-04-18T02:57:57.421Z,29.73
2023-04-18T03:01:01.851Z,31.50
2023-04-18T03:04:05.782Z,30.70
2023-04-18T03:07:09.688Z,30.33
2023-04-18T03:10:13.580Z,28.35
2023-04-18T03:13:18.005Z,27.33
2023-04-18T03:16:22.299Z,27.08
2023-04-18T03:19:26.326Z,28.38
2023-04-18T03:22:30.242Z,25.73
2023-04-18T03:25:34.444Z,26.15
2023-04-18T03:28:38.692Z,24.55
2023-04-18T03:31:42.845Z,27.95
2023-04-18T03:34:47.091Z,24.38
2023-04-18T03:37:51.113Z,27.40
2023-04-18T03:40:55.388Z,24.08
2023-04-18T03:43:59.424Z,25.80
2023-04-18T03:47:03.449Z,23.60
2023-04-18T03:50:08.098Z,22.70
2023-04-18T03:53:11.868Z,23.30
2023-04-18T03:56:16.090Z,22.95
2023-04-18T03:59:20.309Z,21.45
2023-04-18T04:02:24.841Z,19.33
2023-04-18T04:05:29.422Z,21.00
2023-04-18T04:08:33.691Z,19.38
2023-04-18T04:11:37.857Z,19.52
2023-04-18T04:14:41.964Z,18.67
2023-04-18T04:17:46.174Z,18.92
2023-04-18T04:20:50.236Z,21.08
2023-04-18T04:23:54.651Z,19.63
2023-04-18T04:27:00.147Z,18.83
2023-04-18T04:30:05.162Z,19.55
2023-04-18T04:33:09.268Z,21.40
2023-04-18T04:36:18.363Z,19.95
2023-04-18T04:39:23.507Z,20.63
2023-04-18T04:42:28.456Z,20.17
2023-04-18T04:45:33.201Z,19.83
2023-04-18T04:48:37.334Z,21.33
2023-04-18T04:51:41.640Z,18.30
2023-04-18T04:54:46.584Z,19.85
2023-04-18T04:57:50.719Z,21.30
2023-04-18T05:00:55.138Z,21.30
2023-04-18T05:03:59.450Z,23.48
2023-04-18T05:07:03.477Z,20.70
2023-04-18T05:10:07.748Z,19.27
2023-04-18T05:13:11.753Z,21.88
2023-04-18T05:16:15.892Z,19.58
2023-04-18T05:19:23.645Z,20.92
2023-04-18T05:22:27.420Z,19.88
2023-04-18T05:25:32.291Z,19.42
2023-04-18T05:28:36.349Z,20.00
2023-04-18T05:31:40.200Z,19.33
2023-04-18T05:34:44.436Z,20.05
2023-04-18T05:37:48.782Z,20.73
2023-04-18T05:40:55.440Z,19.25
2023-04-18T05:44:05.421Z,19.02
2023-04-18T05:47:09.956Z,23.00
2023-04-18T05:50:14.064Z,21.13
2023-04-18T05:53:18.334Z,20.85
2023-04-18T05:56:22.439Z,20.88
2023-04-18T05:59:29.561Z,19.02
2023-04-18T06:02:33.693Z,20.92
2023-04-18T06:05:37.934Z,21.33
2023-04-18T06:08:42.035Z,18.20
2023-04-18T06:11:46.065Z,19.70
2023-04-18T06:14:50.839Z,22.48
2023-04-18T06:17:55.441Z,20.90
2023-04-18T06:20:59.714Z,22.38
2023-04-18T06:24:03.753Z,20.88
2023-04-18T06:27:12.745Z,19.90
2023-04-18T06:30:25.048Z,18.95
2023-04-18T06:33:29.381Z,22.48
2023-04-18T06:36:33.534Z,20.42
2023-04-18T06:39:37.632Z,20.77
2023-04-18T06:42:42.492Z,18.30
2023-04-18T06:45:46.812Z,19.65
2023-04-18T06:48:51.621Z,16.98
2023-04-18T06:51:55.984Z,19.48
2023-04-18T06:54:59.952Z,17.08
2023-04-18T06:58:05.437Z,16.65
2023-04-18T07:01:09.896Z,17.85
2023-04-18T07:04:14.823Z,17.98
2023-04-18T07:07:20.382Z,16.17
2023-04-18T07:10:24.882Z,16.85
2023-04-18T07:13:28.966Z,18.45
2023-04-18T07:16:33.349Z,17.27
2023-04-18T07:19:37.793Z,17.67
2023-04-18T07:22:41.996Z,20.25
2023-04-18T07:25:46.453Z,15.65
2023-04-18T07:28:50.495Z,17.55
2023-04-18T07:31:54.613Z,16.85
2023-04-18T07:34:59.224Z,19.48
2023-04-18T07:38:03.339Z,15.80
2023-04-18T07:41:07.355Z,17.85
2023-04-18T07:44:11.636Z,16.95
2023-04-18T07:47:16.099Z,16.40
2023-04-18T07:50:20.215Z,16.52
2023-04-18T07:53:24.299Z,18.13
2023-04-18T07:56:28.479Z,17.20
2023-04-18T07:59:32.926Z,19.63
2023-04-18T08:02:37.002Z,15.65
2023-04-18T08:05:42.983Z,18.02
2023-04-18T08:08:47.444Z,14.93
2023-04-18T08:11:51.480Z,15.45
2023-04-18T08:14:55.607Z,15.85
2023-04-18T08:18:00.499Z,18.48
2023-04-18T08:21:05.257Z,15.52
2023-04-18T08:24:09.636Z,18.00
2023-04-18T08:27:13.596Z,14.98
2023-04-18T08:30:17.631Z,17.15
2023-04-18T08:33:23.302Z,17.85
2023-04-18T08:36:27.753Z,15.02
2023-04-18T08:39:32.278Z,14.48
2023-04-18T08:42:38.640Z,17.42
2023-04-18T08:45:43.994Z,15.32
2023-04-18T08:48:49.513Z,15.43
2023-04-18T08:51:53.370Z,16.58
2023-04-18T08:54:57.507Z,19.63
2023-04-18T08:58:02.130Z,15.25
2023-04-18T09:01:07.199Z,15.65
2023-04-18T09:04:13.919Z,15.07
2023-04-18T09:07:20.541Z,17.45
2023-04-18T09:10:36.660Z,15.63
2023-04-18T09:13:47.415Z,17.20
2023-04-18T09:16:51.627Z,16.73
2023-04-18T09:19:56.684Z,17.33
2023-04-18T09:23:03.870Z,17.48
2023-04-18T09:26:08.178Z,16.38
2023-04-18T09:29:13.509Z,15.75
2023-04-18T09:32:29.731Z,18.02
2023-04-18T09:35:34.638Z,17.80
2023-04-18T09:38:40.874Z,16.65
2023-04-18T09:41:58.596Z,14.60
2023-04-18T09:45:07.775Z,15.55
2023-04-18T09:48:11.759Z,15.32
2023-04-18T09:51:16.587Z,17.85
2023-04-18T09:54:24.014Z,19.60
2023-04-18T09:57:30.917Z,17.40
2023-04-18T10:00:37.317Z,16.20
2023-04-18T10:03:47.945Z,19.85
2023-04-18T10:06:53.630Z,17.20
2023-04-18T10:09:57.874Z,15.98
2023-04-18T10:13:03.048Z,17.33
2023-04-18T10:16:07.590Z,14.40
2023-04-18T10:19:26.087Z,14.85
2023-04-18T10:22:30.344Z,16.58
2023-04-18T10:25:34.167Z,17.23
2023-04-18T10:28:56.321Z,16.02
2023-04-18T10:32:06.669Z,15.05
2023-04-18T10:35:11.181Z,16.35
2023-04-18T10:38:17.334Z,20.60
2023-04-18T10:41:28.959Z,17.05
2023-04-18T10:44:33.429Z,15.77
2023-04-18T10:47:37.459Z,15.07
2023-04-18T10:51:16.930Z,15.85
2023-04-18T10:55:02.606Z,15.13
2023-04-18T10:58:06.631Z,17.73
2023-04-18T11:01:15.736Z,14.55
2023-04-18T11:04:20.827Z,16.02
2023-04-18T11:07:39.486Z,14.68
2023-04-18T11:10:43.575Z,16.40
2023-04-18T11:13:55.588Z,16.30
2023-04-18T11:16:59.750Z,19.95
2023-04-18T11:20:14.142Z,17.38
2023-04-18T11:23:23.727Z,25.42
2023-04-18T11:26:28.992Z,16.10
2023-04-18T11:29:33.068Z,17.05
2023-04-18T11:32:37.321Z,16.73
2023-04-18T11:35:43.600Z,16.02
2023-04-18T11:38:47.848Z,17.00
2023-04-18T11:41:52.063Z,20.00
2023-04-18T11:44:56.109Z,17.48
2023-04-18T11:48:00.915Z,19.73
2023-04-18T11:51:10.150Z,19.02
2023-04-18T11:54:36.954Z,16.67
2023-04-18T11:57:41.870Z,19.98
2023-04-18T12:00:45.667Z,18.70
2023-04-18T12:04:04.073Z,18.02
2023-04-18T12:07:08.087Z,19.20
2023-04-18T12:10:31.014Z,19.55
2023-04-18T12:13:35.152Z,18.15
2023-04-18T12:16:41.592Z,18.05
2023-04-18T12:19:46.561Z,17.52
2023-04-18T12:22:53.029Z,23.02
2023-04-18T12:26:01.421Z,21.45
2023-04-18T12:29:05.608Z,21.73
2023-04-18T12:32:09.728Z,21.45
2023-04-18T12:35:14.471Z,20.98
2023-04-18T12:38:23.516Z,20.25
2023-04-18T12:41:27.508Z,18.33
2023-04-18T12:44:31.472Z,21.90
2023-04-18T12:47:35.748Z,21.77
2023-04-18T12:50:40.745Z,20.65
2023-04-18T12:53:44.737Z,20.88
2023-04-18T12:56:49.197Z,21.90
2023-04-18T12:59:53.368Z,19.63
2023-04-18T13:02:57.753Z,21.63
2023-04-18T13:06:02.202Z,22.60
2023-04-18T13:09:06.661Z,19.90
2023-04-18T13:12:11.572Z,19.55
2023-04-18T13:15:16.238Z,17.92
2023-04-18T13:18:20.767Z,19.73
2023-04-18T13:21:25.918Z,18.67
2023-04-18T13:24:29.952Z,18.35
2023-04-18T13:27:34.479Z,19.95
2023-04-18T13:30:38.641Z,17.23
2023-04-18T13:33:42.621Z,17.48
2023-04-18T13:36:46.792Z,20.33
2023-04-18T13:39:51.570Z,19.40
2023-04-18T13:42:55.796Z,19.63
2023-04-18T13:46:00.372Z,18.83
2023-04-18T13:49:04.454Z,19.17
2023-04-18T13:52:08.769Z,20.42
2023-04-18T13:55:12.796Z,18.20
2023-04-18T13:58:17.191Z,17.70
2023-04-18T14:01:22.126Z,17.90
2023-04-18T14:04:27.037Z,18.88
2023-04-18T14:07:31.324Z,19.00
2023-04-18T14:10:35.670Z,20.90
2023-04-18T14:13:39.615Z,20.20
2023-04-18T14:16:43.574Z,22.95
2023-04-18T14:19:48.772Z,20.10
2023-04-18T14:22:53.352Z,20.40
2023-04-18T14:25:57.548Z,20.92
2023-04-18T14:29:02.983Z,24.05
2023-04-18T14:32:07.714Z,23.52
2023-04-18T14:35:11.525Z,21.70
2023-04-18T14:38:16.141Z,21.48
2023-04-18T14:41:20.673Z,21.70
2023-04-18T14:44:27.290Z,21.65
2023-04-18T14:47:34.774Z,19.98
2023-04-18T14:50:39.310Z,20.73
2023-04-18T14:53:44.808Z,23.77
2023-04-18T14:56:48.694Z,21.25
2023-04-18T14:59:54.527Z,19.83
2023-04-18T15:02:58.631Z,22.92
2023-04-18T15:06:02.709Z,26.55
2023-04-18T15:09:06.989Z,20.98
2023-04-18T15:12:10.918Z,20.83
2023-04-18T15:15:14.839Z,20.95
2023-04-18T15:18:19.114Z,19.27
2023-04-18T15:21:23.212Z,23.27
2023-04-18T15:24:27.589Z,20.05
2023-04-18T15:27:31.770Z,28.45
2023-04-18T15:30:36.285Z,23.35
2023-04-18T15:33:40.368Z,21.00
2023-04-18T15:36:46.656Z,21.42
2023-04-18T15:39:51.185Z,20.33
2023-04-18T15:42:56.066Z,23.17
2023-04-18T15:46:00.265Z,19.60
2023-04-18T15:49:04.663Z,21.90
2023-04-18T15:52:08.785Z,22.48
2023-04-18T15:55:13.473Z,22.88
2023-04-18T15:58:17.689Z,21.15
2023-04-18T16:01:22.799Z,22.13
2023-04-18T16:04:27.073Z,21.17
2023-04-18T16:07:31.321Z,23.42
2023-04-18T16:10:36.840Z,25.15
2023-04-18T16:13:41.215Z,21.55
2023-04-18T16:16:46.017Z,23.58
2023-04-18T16:19:50.119Z,21.50
2023-04-18T16:22:54.293Z,21.90
2023-04-18T16:25:58.464Z,25.40
2023-04-18T16:29:03.136Z,25.90
2023-04-18T16:32:08.359Z,22.35
2023-04-18T16:35:12.207Z,21.20
2023-04-18T16:38:16.474Z,23.33
2023-04-18T16:41:20.845Z,22.75
2023-04-18T16:44:25.316Z,23.27
2023-04-18T16:47:30.288Z,25.92
2023-04-18T16:50:34.306Z,21.42
2023-04-18T16:53:38.180Z,23.08
2023-04-18T16:56:44.538Z,26.45
2023-04-18T16:59:48.872Z,23.42
2023-04-18T17:02:55.352Z,21.98
2023-04-18T17:06:00.812Z,21.63
2023-04-18T17:09:06.415Z,26.80
2023-04-18T17:12:10.676Z,20.92
2023-04-18T17:15:19.077Z,22.42
2023-04-18T17:18:23.214Z,23.08
2023-04-18T17:21:27.449Z,27.40
2023-04-18T17:24:33.901Z,23.35
2023-04-18T17:27:40.670Z,25.02
2023-04-18T17:30:45.051Z,27.48
2023-04-18T17:33:51.987Z,22.13
2023-04-18T17:36:56.089Z,24.77
2023-04-18T17:40:01.324Z,23.52
2023-04-18T17:43:05.305Z,21.83
2023-04-18T17:46:09.229Z,22.75
2023-04-18T17:49:13.690Z,21.00
2023-04-18T17:52:18.022Z,21.42
2023-04-18T17:55:22.135Z,20.77
2023-04-18T17:58:26.776Z,22.27
2023-04-18T18:01:31.650Z,22.10
2023-04-18T18:04:35.940Z,22.20
2023-04-18T18:07:43.055Z,22.88
2023-04-18T18:10:48.248Z,22.23
2023-04-18T18:13:54.523Z,22.25
2023-04-18T18:16:58.305Z,22.83
2023-04-18T18:20:02.440Z,23.20
2023-04-18T18:23:07.344Z,24.58
2023-04-18T18:26:11.962Z,24.85
2023-04-18T18:29:16.052Z,25.33
2023-04-18T18:32:20.468Z,24.23
2023-04-18T18:35:24.560Z,22.55
2023-04-18T18:38:28.897Z,22.17
2023-04-18T18:41:33.355Z,21.73
2023-04-18T18:44:37.418Z,22.17
2023-04-18T18:47:41.382Z,23.27
2023-04-18T18:50:45.456Z,24.77
2023-04-18T18:53:50.004Z,21.15
2023-04-18T18:56:53.875Z,22.98
2023-04-18T18:59:57.620Z,22.92
2023-04-18T19:03:01.834Z,25.00
2023-04-18T19:06:07.297Z,22.10
2023-04-18T19:09:12.176Z,22.25
2023-04-18T19:12:16.341Z,26.00
2023-04-18T19:15:20.720Z,22.58
2023-04-18T19:18:24.976Z,25.98
2023-04-18T19:21:29.898Z,24.88
2023-04-18T19:24:34.978Z,24.17
2023-04-18T19:27:39.136Z,26.38
2023-04-18T19:30:43.395Z,23.08
2023-04-18T19:33:47.568Z,25.42
2023-04-18T19:36:51.448Z,27.65
2023-04-18T19:39:55.652Z,21.90
2023-04-18T19:42:59.673Z,25.50
2023-04-18T19:46:03.893Z,25.08
2023-04-18T19:49:07.923Z,22.75
2023-04-18T19:52:12.123Z,21.23
2023-04-18T19:55:16.241Z,22.85
2023-04-18T19:58:38.780Z,23.95
2023-04-18T20:01:42.764Z,21.80
2023-04-18T20:04:46.672Z,22.73
2023-04-18T20:07:51.236Z,23.92
2023-04-18T20:10:56.165Z,24.88
2023-04-18T20:14:00.618Z,24.40
2023-04-18T20:17:04.345Z,25.20
2023-04-18T20:20:09.427Z,22.23
2023-04-18T20:23:14.379Z,21.67
2023-04-18T20:26:19.348Z,22.30
2023-04-18T20:29:23.863Z,25.20
2023-04-18T20:32:28.056Z,22.73
2023-04-18T20:35:32.072Z,24.75
2023-04-18T20:38:36.915Z,25.08
2023-04-18T20:41:46.693Z,26.02
2023-04-18T20:44:51.286Z,23.25
2023-04-18T20:47:56.852Z,22.98
2023-04-18T20:51:01.159Z,22.65
2023-04-18T20:54:05.627Z,21.55
2023-04-18T20:57:09.475Z,19.85
2023-04-18T21:00:14.240Z,22.48
2023-04-18T21:03:18.823Z,22.25
2023-04-18T21:06:23.192Z,22.60
2023-04-18T21:09:27.481Z,22.60
2023-04-18T21:12:31.766Z,18.38
2023-04-18T21:15:36.172Z,22.80
2023-04-18T21:18:40.054Z,21.58
2023-04-18T21:21:44.241Z,18.83
2023-04-18T21:24:48.449Z,17.92
2023-04-18T21:27:52.669Z,18.38
2023-04-18T21:30:57.040Z,18.70
2023-04-18T21:34:04.196Z,19.77
2023-04-18T21:37:08.501Z,16.60
2023-04-18T21:40:12.694Z,16.85
2023-04-18T21:43:16.790Z,14.30
2023-04-18T21:46:21.117Z,14.48
2023-04-18T21:49:25.572Z,14.73
2023-04-18T21:52:29.897Z,13.68
2023-04-18T21:55:34.273Z,15.35
2023-04-18T21:58:38.455Z,14.68
2023-04-18T22:01:42.940Z,14.57
2023-04-18T22:04:48.090Z,14.50
2023-04-18T22:07:58.034Z,14.13
2023-04-18T22:11:04.736Z,13.80
2023-04-18T22:14:09.956Z,12.15
2023-04-18T22:17:14.327Z,12.82
2023-04-18T22:20:18.562Z,13.63
2023-04-18T22:23:22.588Z,10.27
2023-04-18T22:26:26.668Z,9.90
2023-04-18T22:29:30.842Z,14.50
2023-04-18T22:32:35.588Z,11.07
2023-04-18T22:35:39.636Z,12.27
2023-04-18T22:38:43.738Z,10.80
2023-04-18T22:41:47.923Z,11.60
2023-04-18T22:44:52.291Z,10.57
2023-04-18T22:47:56.468Z,11.30
2023-04-18T22:51:01.884Z,10.00
2023-04-18T22:54:06.158Z,12.48
2023-04-18T22:57:10.872Z,10.27
2023-04-18T23:00:15.374Z,9.70
2023-04-18T23:03:19.849Z,12.02
2023-04-18T23:06:23.869Z,11.38
2023-04-18T23:09:31.267Z,10.55
2023-04-18T23:12:35.084Z,9.18
2023-04-18T23:15:39.214Z,11.05
2023-04-18T23:18:43.421Z,9.30
2023-04-18T23:21:49.580Z,8.95
2023-04-18T23:24:55.064Z,11.57
2023-04-18T23:27:59.142Z,10.95
2023-04-18T23:31:03.273Z,10.63
2023-04-18T23:34:07.465Z,10.48
2023-04-18T23:37:11.947Z,11.15
2023-04-18T23:40:16.228Z,11.75
2023-04-18T23:43:21.009Z,11.27
2023-04-18T23:46:25.835Z,10.75
2023-04-18T23:49:30.660Z,10.85
2023-04-18T23:52:34.958Z,11.05
2023-04-18T23:55:39.378Z,11.23
2023-04-18T23:58:43.655Z,10.57
